createdAt,value
2018-03-29T00:00:34.089Z,0.50
2018-03-29T00:03:02.389Z,0.40
2018-03-29T00:05:30.596Z,0.40
2018-03-29T00:07:58.827Z,0.20
2018-03-29T00:10:27.085Z,0.23
2018-03-29T00:12:55.340Z,0.47
2018-03-29T00:15:23.590Z,0.30
2018-03-29T00:17:52.608Z,0.10
2018-03-29T00:20:20.876Z,0.30
2018-03-29T00:22:49.881Z,0.27
2018-03-29T00:25:18.240Z,0.30
2018-03-29T00:27:46.430Z,0.20
2018-03-29T00:30:14.684Z,0.20
2018-03-29T00:32:42.932Z,0.20
2018-03-29T00:35:11.194Z,0.30
2018-03-29T00:37:39.431Z,0.30
2018-03-29T00:40:08.550Z,0.30
2018-03-29T00:42:36.816Z,0.20
2018-03-29T00:45:05.836Z,0.40
2018-03-29T00:47:34.923Z,0.30
2018-03-29T00:50:03.940Z,0.30
2018-03-29T00:52:32.189Z,0.10
2018-03-29T00:55:01.228Z,0.00
2018-03-29T00:57:29.469Z,0.30
2018-03-29T00:59:58.483Z,0.30
2018-03-29T01:02:27.495Z,0.37
2018-03-29T01:04:55.843Z,0.50
2018-03-29T01:07:24.867Z,0.40
2018-03-29T01:09:53.866Z,0.52
2018-03-29T01:12:22.117Z,0.30
2018-03-29T01:14:50.372Z,0.50
2018-03-29T01:17:19.862Z,0.40
2018-03-29T01:19:48.101Z,0.57
2018-03-29T01:22:17.127Z,0.60
2018-03-29T01:24:45.367Z,0.50
2018-03-29T01:27:14.390Z,0.52
2018-03-29T01:29:42.632Z,0.50
2018-03-29T01:32:10.901Z,0.50
2018-03-29T01:34:39.148Z,0.50
2018-03-29T01:37:07.396Z,0.40
2018-03-29T01:39:36.416Z,0.70
2018-03-29T01:42:04.662Z,0.67
2018-03-29T01:44:33.681Z,0.53
2018-03-29T01:47:01.941Z,0.50
2018-03-29T01:49:30.969Z,0.70
2018-03-29T01:51:59.222Z,0.77
2018-03-29T01:54:29.481Z,0.40
2018-03-29T01:56:57.724Z,0.90
2018-03-29T01:59:26.732Z,0.70
2018-03-29T02:01:55.750Z,0.60
2018-03-29T02:04:24.000Z,0.40
2018-03-29T02:06:53.007Z,0.60
2018-03-29T02:09:21.368Z,1.00
2018-03-29T02:11:49.625Z,0.60
2018-03-29T02:14:17.861Z,0.80
2018-03-29T02:16:46.232Z,0.63
2018-03-29T02:19:15.240Z,0.70
2018-03-29T02:21:43.487Z,0.70
2018-03-29T02:24:11.736Z,0.83
2018-03-29T02:26:39.980Z,0.80
2018-03-29T02:29:08.226Z,0.60
2018-03-29T02:31:36.480Z,0.73
2018-03-29T02:34:04.721Z,0.80
2018-03-29T02:36:32.991Z,0.70
2018-03-29T02:39:01.245Z,0.70
2018-03-29T02:41:29.546Z,0.98
2018-03-29T02:43:58.560Z,0.68
2018-03-29T02:46:26.808Z,0.90
2018-03-29T02:48:55.045Z,0.80
2018-03-29T02:51:23.304Z,1.10
2018-03-29T02:53:51.538Z,0.93
2018-03-29T02:56:19.793Z,0.80
2018-03-29T02:58:48.044Z,0.83
2018-03-29T03:01:16.284Z,0.90
2018-03-29T03:03:44.532Z,1.03
2018-03-29T03:06:12.769Z,0.97
2018-03-29T03:08:41.781Z,0.87
2018-03-29T03:11:10.037Z,1.10
2018-03-29T03:13:39.038Z,0.90
2018-03-29T03:16:08.056Z,0.90
2018-03-29T03:18:36.305Z,0.90
2018-03-29T03:21:04.547Z,1.10
2018-03-29T03:23:32.793Z,1.15
2018-03-29T03:26:01.036Z,1.10
2018-03-29T03:28:30.533Z,1.07
2018-03-29T03:30:58.781Z,0.90
2018-03-29T03:33:27.044Z,1.13
2018-03-29T03:35:55.298Z,1.10
2018-03-29T03:38:24.312Z,1.13
2018-03-29T03:40:53.326Z,1.20
2018-03-29T03:43:21.583Z,1.20
2018-03-29T03:45:50.588Z,1.17
2018-03-29T03:48:18.823Z,1.30
2018-03-29T03:50:47.080Z,1.30
2018-03-29T03:53:15.320Z,1.30
2018-03-29T03:55:44.344Z,1.33
2018-03-29T03:58:12.579Z,1.10
2018-03-29T04:00:40.825Z,1.27
2018-03-29T04:03:09.074Z,1.37
2018-03-29T04:05:37.315Z,1.20
2018-03-29T04:08:05.564Z,1.40
2018-03-29T04:10:33.815Z,1.50
2018-03-29T04:13:02.064Z,1.43
2018-03-29T04:15:31.237Z,1.65
2018-03-29T04:17:59.514Z,1.60
2018-03-29T04:20:27.765Z,1.73
2018-03-29T04:22:56.014Z,1.50
2018-03-29T04:25:26.273Z,1.80
2018-03-29T04:27:54.512Z,1.90
2018-03-29T04:30:23.543Z,1.80
2018-03-29T04:32:52.616Z,2.10
2018-03-29T04:35:21.625Z,2.17
2018-03-29T04:37:49.872Z,2.20
2018-03-29T04:40:18.111Z,1.73
2018-03-29T04:42:46.360Z,2.10
2018-03-29T04:45:15.373Z,2.00
2018-03-29T04:47:43.619Z,2.13
2018-03-29T04:50:12.635Z,2.27
2018-03-29T04:52:41.654Z,2.30
2018-03-29T04:55:09.913Z,2.70
2018-03-29T04:57:38.933Z,2.63
2018-03-29T05:00:07.180Z,2.60
2018-03-29T05:02:36.232Z,2.30
2018-03-29T05:05:04.442Z,2.57
2018-03-29T05:07:32.724Z,3.40
2018-03-29T05:10:00.954Z,2.83
2018-03-29T05:12:29.185Z,2.67
2018-03-29T05:14:57.436Z,2.60
2018-03-29T05:17:25.675Z,3.12
2018-03-29T05:19:53.909Z,2.90
2018-03-29T05:22:22.562Z,3.60
2018-03-29T05:24:50.792Z,3.63
2018-03-29T05:27:19.801Z,3.23
2018-03-29T05:29:48.820Z,2.33
2018-03-29T05:32:17.071Z,2.90
2018-03-29T05:34:45.320Z,2.50
2018-03-29T05:37:13.583Z,1.90
2018-03-29T05:39:41.819Z,2.40
2018-03-29T05:42:10.837Z,1.90
2018-03-29T05:44:39.084Z,2.07
2018-03-29T05:47:07.320Z,1.80
2018-03-29T05:49:35.587Z,2.03
2018-03-29T05:52:03.820Z,1.65
2018-03-29T05:54:32.064Z,1.77
2018-03-29T05:57:00.329Z,1.90
2018-03-29T05:59:29.060Z,2.03
2018-03-29T06:01:57.312Z,1.80
2018-03-29T06:04:25.571Z,3.60
2018-03-29T06:06:54.589Z,3.93
2018-03-29T06:09:22.831Z,2.57
2018-03-29T06:11:51.840Z,2.10
2018-03-29T06:14:20.087Z,2.13
2018-03-29T06:16:48.328Z,1.90
2018-03-29T06:19:16.588Z,1.73
2018-03-29T06:21:44.829Z,2.10
2018-03-29T06:24:13.084Z,2.10
2018-03-29T06:26:41.328Z,2.10
2018-03-29T06:29:09.596Z,3.40
2018-03-29T06:31:38.605Z,4.70
2018-03-29T06:34:06.848Z,3.62
2018-03-29T06:36:36.038Z,3.15
2018-03-29T06:39:04.284Z,2.63
2018-03-29T06:41:32.528Z,2.47
2018-03-29T06:44:01.548Z,3.20
2018-03-29T06:46:29.789Z,2.93
2018-03-29T06:48:58.039Z,3.53
2018-03-29T06:51:26.292Z,4.00
2018-03-29T06:53:54.544Z,4.10
2018-03-29T06:56:23.831Z,3.87
2018-03-29T06:58:52.080Z,4.20
2018-03-29T07:01:20.323Z,6.10
2018-03-29T07:03:49.341Z,10.50
2018-03-29T07:06:17.592Z,8.73
2018-03-29T07:08:46.607Z,4.80
2018-03-29T07:11:14.844Z,4.77
2018-03-29T07:13:43.100Z,4.57
2018-03-29T07:16:11.341Z,4.30
2018-03-29T07:18:40.831Z,4.13
2018-03-29T07:21:09.881Z,4.33
2018-03-29T07:23:38.109Z,3.97
2018-03-29T07:26:07.120Z,4.68
2018-03-29T07:28:35.382Z,4.60
2018-03-29T07:31:04.410Z,4.13
2018-03-29T07:33:32.656Z,4.10
2018-03-29T07:36:01.668Z,4.00
2018-03-29T07:38:30.987Z,4.57
2018-03-29T07:40:59.195Z,3.93
2018-03-29T07:43:27.440Z,4.27
2018-03-29T07:45:55.696Z,4.20
2018-03-29T07:48:24.708Z,4.27
2018-03-29T07:50:53.727Z,4.10
2018-03-29T07:53:21.975Z,4.47
2018-03-29T07:55:50.985Z,4.13
2018-03-29T07:58:20.003Z,3.73
2018-03-29T08:00:48.236Z,3.40
2018-03-29T08:03:16.476Z,3.10
2018-03-29T08:05:44.728Z,3.97
2018-03-29T08:08:12.978Z,4.47
2018-03-29T08:10:41.233Z,5.23
2018-03-29T08:13:09.476Z,4.80
2018-03-29T08:15:37.717Z,5.70
2018-03-29T08:18:05.972Z,6.50
2018-03-29T08:20:34.372Z,6.17
2018-03-29T08:23:03.868Z,7.27
2018-03-29T08:25:32.104Z,6.70
2018-03-29T08:28:00.371Z,7.55
2018-03-29T08:30:29.391Z,5.75
2018-03-29T08:32:57.637Z,6.10
2018-03-29T08:35:26.642Z,5.20
2018-03-29T08:37:55.653Z,5.45
2018-03-29T08:40:24.675Z,5.33
2018-03-29T08:42:52.931Z,5.17
2018-03-29T08:45:21.923Z,5.73
2018-03-29T08:47:50.937Z,6.10
2018-03-29T08:50:19.191Z,6.57
2018-03-29T08:52:48.216Z,7.10
2018-03-29T08:55:16.462Z,6.80
2018-03-29T08:57:45.468Z,7.03
2018-03-29T09:00:14.492Z,7.40
2018-03-29T09:02:42.736Z,7.90
2018-03-29T09:05:11.743Z,7.20
2018-03-29T09:07:40.773Z,8.43
2018-03-29T09:10:09.016Z,7.60
2018-03-29T09:12:38.020Z,7.20
2018-03-29T09:15:07.045Z,6.17
2018-03-29T09:17:36.521Z,6.50
2018-03-29T09:20:05.540Z,5.60
2018-03-29T09:22:33.815Z,5.67
2018-03-29T09:25:02.070Z,5.70
2018-03-29T09:27:30.305Z,5.50
2018-03-29T09:29:58.539Z,4.97
2018-03-29T09:32:27.558Z,5.73
2018-03-29T09:34:55.808Z,5.47
2018-03-29T09:37:24.836Z,7.20
2018-03-29T09:39:53.088Z,6.37
2018-03-29T09:42:22.095Z,5.23
2018-03-29T09:44:51.117Z,5.83
2018-03-29T09:47:19.380Z,7.90
2018-03-29T09:49:48.400Z,5.73
2018-03-29T09:52:16.640Z,6.57
2018-03-29T09:54:44.889Z,5.20
2018-03-29T09:57:13.140Z,4.67
2018-03-29T09:59:41.385Z,4.72
2018-03-29T10:02:24.092Z,4.50
2018-03-29T10:04:58.548Z,4.33
2018-03-29T10:07:32.204Z,4.40
2018-03-29T10:10:01.694Z,4.63
2018-03-29T10:12:29.957Z,3.73
2018-03-29T10:14:58.217Z,3.50
2018-03-29T10:17:26.460Z,3.90
2018-03-29T10:19:54.708Z,3.63
2018-03-29T10:22:22.969Z,3.80
2018-03-29T10:24:51.214Z,3.90
2018-03-29T10:27:20.236Z,3.95
2018-03-29T10:29:48.465Z,3.40
2018-03-29T10:32:16.775Z,3.40
2018-03-29T10:34:44.971Z,3.10
2018-03-29T10:37:13.229Z,3.10
2018-03-29T10:39:42.249Z,2.73
2018-03-29T10:42:10.512Z,3.15
2018-03-29T10:44:39.541Z,3.57
2018-03-29T10:47:07.789Z,3.73
2018-03-29T10:49:36.808Z,3.00
2018-03-29T10:52:05.057Z,3.07
2018-03-29T10:54:34.086Z,2.63
2018-03-29T10:57:02.352Z,2.70
2018-03-29T10:59:30.615Z,2.80
2018-03-29T11:01:59.524Z,2.90
2018-03-29T11:04:28.547Z,2.70
2018-03-29T11:06:56.789Z,2.80
2018-03-29T11:09:25.816Z,3.07
2018-03-29T11:11:54.082Z,3.03
2018-03-29T11:14:23.093Z,2.70
2018-03-29T11:16:51.360Z,3.17
2018-03-29T11:19:20.373Z,3.17
2018-03-29T11:21:48.636Z,2.60
2018-03-29T11:24:17.655Z,2.47
2018-03-29T11:26:45.908Z,2.50
2018-03-29T11:29:14.930Z,2.50
2018-03-29T11:31:43.195Z,2.35
2018-03-29T11:34:11.448Z,2.40
2018-03-29T11:36:39.698Z,2.53
2018-03-29T11:39:07.952Z,2.40
2018-03-29T11:41:36.214Z,2.22
2018-03-29T11:44:05.240Z,2.20
2018-03-29T11:46:33.502Z,2.40
2018-03-29T11:49:01.768Z,2.47
2018-03-29T11:51:30.812Z,2.63
2018-03-29T11:53:59.056Z,2.13
2018-03-29T11:56:27.303Z,1.93
2018-03-29T11:58:55.588Z,1.73
2018-03-29T12:01:23.840Z,1.80
2018-03-29T12:03:52.089Z,2.03
2018-03-29T12:06:20.348Z,1.90
2018-03-29T12:08:49.364Z,1.80
2018-03-29T12:11:17.628Z,1.80
2018-03-29T12:13:46.647Z,2.00
2018-03-29T12:16:14.918Z,2.50
2018-03-29T12:18:43.159Z,2.20
2018-03-29T12:21:11.415Z,2.10
2018-03-29T12:23:39.685Z,1.90
2018-03-29T12:26:07.952Z,1.90
2018-03-29T12:28:36.200Z,1.73
2018-03-29T12:31:05.217Z,1.80
2018-03-29T12:33:33.479Z,1.67
2018-03-29T12:36:02.684Z,1.85
2018-03-29T12:38:31.702Z,1.60
2018-03-29T12:41:00.064Z,1.77
2018-03-29T12:43:29.083Z,1.73
2018-03-29T12:45:57.328Z,1.80
2018-03-29T12:48:26.364Z,1.80
2018-03-29T12:50:54.628Z,1.80
2018-03-29T12:53:22.881Z,1.87
2018-03-29T12:55:51.144Z,1.90
2018-03-29T12:58:19.408Z,2.13
2018-03-29T13:00:47.672Z,2.20
2018-03-29T13:03:15.933Z,1.90
2018-03-29T13:05:44.187Z,2.07
2018-03-29T13:08:13.005Z,2.10
2018-03-29T13:10:41.252Z,2.27
2018-03-29T13:13:09.512Z,2.50
2018-03-29T13:15:37.774Z,2.30
2018-03-29T13:18:06.035Z,2.43
2018-03-29T13:20:34.284Z,1.70
2018-03-29T13:23:03.308Z,1.73
2018-03-29T13:25:31.562Z,1.52
2018-03-29T13:28:00.591Z,1.48
2018-03-29T13:30:28.844Z,1.57
2018-03-29T13:32:57.853Z,1.73
2018-03-29T13:35:26.113Z,1.57
2018-03-29T13:37:55.127Z,1.60
2018-03-29T13:40:23.762Z,1.70
2018-03-29T13:42:52.023Z,1.50
2018-03-29T13:45:20.295Z,1.53
2018-03-29T13:47:48.550Z,1.60
2018-03-29T13:50:17.566Z,2.00
2018-03-29T13:52:45.930Z,2.00
2018-03-29T13:55:14.955Z,2.37
2018-03-29T13:57:43.191Z,2.93
2018-03-29T14:00:11.456Z,2.30
2018-03-29T14:02:39.696Z,1.87
2018-03-29T14:05:07.958Z,1.60
2018-03-29T14:07:36.976Z,1.60
2018-03-29T14:10:05.226Z,1.97
2018-03-29T14:12:34.253Z,1.60
2018-03-29T14:15:02.487Z,1.50
2018-03-29T14:17:30.734Z,2.60
2018-03-29T14:19:58.984Z,3.85
2018-03-29T14:22:27.225Z,3.20
2018-03-29T14:24:55.489Z,4.53
2018-03-29T14:27:23.732Z,3.90
2018-03-29T14:29:51.972Z,3.30
2018-03-29T14:32:20.987Z,4.97
2018-03-29T14:34:49.998Z,4.10
2018-03-29T14:37:18.256Z,1.60
2018-03-29T14:39:47.278Z,1.50
2018-03-29T14:42:16.320Z,1.60
2018-03-29T14:44:44.563Z,1.77
2018-03-29T14:47:12.822Z,1.40
2018-03-29T14:49:41.836Z,1.43
2018-03-29T14:52:10.084Z,1.10
2018-03-29T14:54:39.100Z,1.30
2018-03-29T14:57:07.357Z,1.40
2018-03-29T14:59:35.614Z,1.33
2018-03-29T15:02:03.855Z,1.40
2018-03-29T15:04:32.100Z,1.60
2018-03-29T15:07:01.120Z,1.60
2018-03-29T15:09:29.353Z,1.60
2018-03-29T15:11:57.618Z,1.90
2018-03-29T15:14:25.852Z,2.27
2018-03-29T15:16:54.861Z,2.20
2018-03-29T15:19:23.115Z,2.40
2018-03-29T15:21:51.368Z,2.43
2018-03-29T15:24:20.536Z,1.90
2018-03-29T15:26:48.776Z,1.50
2018-03-29T15:29:17.792Z,1.77
2018-03-29T15:31:46.057Z,1.27
2018-03-29T15:34:15.064Z,1.50
2018-03-29T15:36:44.068Z,1.37
2018-03-29T15:39:12.324Z,1.50
2018-03-29T15:41:40.564Z,1.70
2018-03-29T15:44:08.812Z,1.25
2018-03-29T15:46:37.063Z,1.80
2018-03-29T15:49:05.320Z,1.57
2018-03-29T15:51:33.558Z,1.60
2018-03-29T15:54:01.807Z,1.77
2018-03-29T15:56:30.075Z,1.60
2018-03-29T15:58:58.365Z,1.70
2018-03-29T16:01:26.685Z,1.50
2018-03-29T16:03:54.985Z,1.60
2018-03-29T16:06:23.292Z,1.80
2018-03-29T16:11:25.924Z,2.00
2018-03-29T16:13:54.232Z,1.93
2018-03-29T16:16:22.582Z,1.90
2018-03-29T16:18:51.650Z,1.60
2018-03-29T16:21:19.964Z,1.53
2018-03-29T16:23:50.265Z,1.80
2018-03-29T16:26:18.518Z,2.42
2018-03-29T16:28:46.812Z,1.87
2018-03-29T16:31:15.054Z,1.90
2018-03-29T16:33:43.310Z,1.90
2018-03-29T16:36:12.321Z,1.60
2018-03-29T16:38:40.566Z,1.60
2018-03-29T16:41:10.520Z,1.50
2018-03-29T16:43:38.760Z,1.83
2018-03-29T16:46:07.020Z,1.87
2018-03-29T16:48:35.267Z,1.90
2018-03-29T16:51:03.523Z,2.00
2018-03-29T16:53:32.527Z,1.80
2018-03-29T16:56:00.775Z,1.77
2018-03-29T16:58:29.028Z,1.92
2018-03-29T17:00:57.290Z,1.80
2018-03-29T17:03:25.541Z,1.93
2018-03-29T17:05:54.556Z,1.57
2018-03-29T17:08:22.803Z,3.10
2018-03-29T17:10:51.812Z,4.30
2018-03-29T17:13:20.845Z,6.20
2018-03-29T17:15:49.080Z,4.63
2018-03-29T17:18:18.196Z,3.70
2018-03-29T17:20:47.744Z,2.53
2018-03-29T17:23:15.996Z,1.90
2018-03-29T17:25:44.241Z,2.43
2018-03-29T17:28:12.500Z,2.20
2018-03-29T17:30:40.835Z,2.20
2018-03-29T17:33:09.843Z,2.17
2018-03-29T17:35:38.099Z,1.80
2018-03-29T17:38:07.124Z,2.40
2018-03-29T17:40:35.372Z,2.60
2018-03-29T17:43:04.398Z,2.93
2018-03-29T17:45:32.628Z,3.00
2018-03-29T17:48:00.934Z,2.53
2018-03-29T17:50:29.148Z,4.10
2018-03-29T17:52:58.140Z,2.77
2018-03-29T17:55:26.396Z,2.87
2018-03-29T17:57:55.434Z,3.13
2018-03-29T18:00:23.675Z,3.45
2018-03-29T18:02:52.696Z,2.30
2018-03-29T18:05:20.930Z,2.50
2018-03-29T18:07:49.189Z,3.00
2018-03-29T18:10:17.468Z,2.60
2018-03-29T18:12:45.728Z,2.00
2018-03-29T18:15:13.968Z,2.00
2018-03-29T18:17:42.980Z,1.90
2018-03-29T18:20:11.239Z,1.90
2018-03-29T18:22:40.246Z,1.80
2018-03-29T18:25:09.263Z,1.83
2018-03-29T18:27:37.761Z,2.10
2018-03-29T18:30:06.001Z,2.10
2018-03-29T18:32:35.003Z,2.80
2018-03-29T18:35:04.015Z,1.77
2018-03-29T18:37:32.264Z,2.63
2018-03-29T18:40:00.520Z,2.33
2018-03-29T18:42:28.774Z,2.40
2018-03-29T18:44:57.013Z,2.00
2018-03-29T18:47:26.024Z,2.30
2018-03-29T18:49:54.764Z,2.20
2018-03-29T18:52:23.009Z,2.30
2018-03-29T18:54:51.281Z,1.90
2018-03-29T18:57:19.529Z,2.03
2018-03-29T18:59:47.791Z,3.47
2018-03-29T19:02:16.061Z,3.97
2018-03-29T19:04:44.302Z,2.93
2018-03-29T19:07:12.540Z,3.07
2018-03-29T19:09:41.064Z,2.80
2018-03-29T19:12:10.063Z,2.83
2018-03-29T19:14:38.316Z,3.20
2018-03-29T19:17:06.564Z,2.70
2018-03-29T19:19:34.813Z,3.00
2018-03-29T19:22:03.064Z,3.23
2018-03-29T19:24:32.089Z,3.35
2018-03-29T19:27:00.334Z,3.20
2018-03-29T19:29:28.584Z,3.57
2018-03-29T19:31:56.836Z,3.90
2018-03-29T19:34:25.081Z,3.22
2018-03-29T19:36:54.112Z,4.07
2018-03-29T19:39:22.352Z,3.90
2018-03-29T19:41:50.601Z,3.23
2018-03-29T19:44:18.855Z,3.43
2018-03-29T19:46:47.116Z,3.30
2018-03-29T19:49:16.124Z,3.40
2018-03-29T19:51:44.364Z,3.10
2018-03-29T19:54:12.616Z,3.35
2018-03-29T19:56:40.863Z,3.03
2018-03-29T19:59:09.128Z,3.43
2018-03-29T20:01:39.374Z,3.30
2018-03-29T20:04:07.613Z,3.53
2018-03-29T20:06:35.863Z,3.42
2018-03-29T20:09:04.138Z,3.60
2018-03-29T20:11:33.019Z,3.17
2018-03-29T20:14:01.336Z,3.50
2018-03-29T20:16:29.591Z,3.33
2018-03-29T20:18:57.828Z,3.30
2018-03-29T20:21:26.841Z,3.00
2018-03-29T20:23:55.088Z,3.03
2018-03-29T20:26:24.092Z,3.30
2018-03-29T20:28:53.174Z,3.45
2018-03-29T20:31:21.404Z,2.50
2018-03-29T20:33:49.660Z,2.37
2018-03-29T20:36:18.693Z,2.67
2018-03-29T20:38:46.940Z,2.40
2018-03-29T20:41:15.957Z,2.08
2018-03-29T20:43:44.225Z,1.93
2018-03-29T20:46:12.464Z,2.17
2018-03-29T20:48:40.714Z,2.30
2018-03-29T20:51:08.969Z,2.37
2018-03-29T20:53:37.205Z,2.20
2018-03-29T20:56:05.453Z,2.37
2018-03-29T20:58:33.692Z,2.62
2018-03-29T21:01:02.706Z,2.63
2018-03-29T21:03:30.955Z,2.50
2018-03-29T21:05:59.647Z,2.62
2018-03-29T21:08:28.660Z,2.55
2018-03-29T21:10:57.681Z,2.67
2018-03-29T21:13:25.911Z,2.67
2018-03-29T21:15:54.501Z,2.90
2018-03-29T21:18:22.743Z,2.50
2018-03-29T21:20:50.984Z,2.90
2018-03-29T21:23:20.017Z,2.63
2018-03-29T21:25:48.710Z,2.97
2018-03-29T21:28:17.173Z,3.12
2018-03-29T21:30:45.416Z,3.50
2018-03-29T21:33:13.660Z,3.63
2018-03-29T21:35:41.922Z,3.73
2018-03-29T21:38:10.152Z,3.57
2018-03-29T21:40:38.401Z,3.90
2018-03-29T21:43:06.760Z,4.43
2018-03-29T21:45:34.892Z,4.22
2018-03-29T21:48:03.140Z,3.70
2018-03-29T21:50:31.381Z,3.50
2018-03-29T21:52:59.636Z,3.80
2018-03-29T21:55:27.884Z,3.60
2018-03-29T21:57:56.162Z,3.50
2018-03-29T22:00:24.402Z,3.60
2018-03-29T22:02:53.417Z,3.20
2018-03-29T22:05:21.689Z,3.00
2018-03-29T22:07:49.930Z,3.25
2018-03-29T22:10:18.184Z,2.95
2018-03-29T22:12:46.420Z,3.10
2018-03-29T22:15:14.678Z,3.13
2018-03-29T22:17:42.918Z,3.53
2018-03-29T22:20:11.180Z,3.30
2018-03-29T22:22:39.432Z,3.37
2018-03-29T22:25:08.442Z,3.30
2018-03-29T22:27:37.448Z,3.33
2018-03-29T22:30:05.713Z,3.13
2018-03-29T22:32:34.711Z,3.58
2018-03-29T22:35:02.972Z,3.30
2018-03-29T22:37:31.215Z,3.20
2018-03-29T22:39:59.472Z,3.53
2018-03-29T22:42:27.713Z,2.67
2018-03-29T22:44:56.739Z,3.05
2018-03-29T22:47:26.060Z,3.72
2018-03-29T22:49:54.295Z,4.00
2018-03-29T22:52:23.308Z,3.20
2018-03-29T22:54:52.332Z,3.10
2018-03-29T22:57:20.580Z,3.47
2018-03-29T22:59:49.612Z,3.12
2018-03-29T23:02:17.873Z,3.17
2018-03-29T23:04:46.891Z,3.10
2018-03-29T23:07:15.160Z,3.17
2018-03-29T23:09:44.944Z,2.97
2018-03-29T23:12:13.193Z,3.08
2018-03-29T23:14:41.480Z,3.60
2018-03-29T23:17:09.725Z,4.17
2018-03-29T23:19:37.988Z,3.70
2018-03-29T23:22:06.256Z,4.10
2018-03-29T23:24:35.281Z,3.45
2018-03-29T23:27:03.532Z,4.00
2018-03-29T23:29:32.848Z,5.72
2018-03-29T23:32:01.100Z,6.93
2018-03-29T23:34:29.356Z,5.70
2018-03-29T23:36:57.603Z,4.47
2018-03-29T23:39:25.863Z,4.97
2018-03-29T23:41:54.120Z,5.00
2018-03-29T23:44:22.375Z,4.72
2018-03-29T23:46:50.624Z,3.90
2018-03-29T23:49:18.884Z,4.33
2018-03-29T23:51:47.160Z,3.90
2018-03-29T23:54:16.194Z,4.80
2018-03-29T23:56:44.444Z,5.28
2018-03-29T23:59:13.465Z,5.13
